sensor_id;sensor_type;location;lat;lon;timestamp;pressure;altitude;pressure_sealevel;temperature;humidity
5574;BME280;2563;52.242;7.956;2022-09-03T00:07:54;100677.38;;;14.64;100.00
5574;BME280;2563;52.242;7.956;2022-09-03T00:10:28;100673.91;;;14.65;100.00
5574;BME280;2563;52.242;7.956;2022-09-03T00:12:56;100679.31;;;14.59;100.00
5574;BME280;2563;52.242;7.956;2022-09-03T00:15:24;100684.25;;;14.65;100.00
5574;BME280;2563;52.242;7.956;2022-09-03T00:18:13;100687.03;;;14.61;100.00
5574;BME280;2563;52.242;7.956;2022-09-03T00:20:43;100683.81;;;14.54;100.00
5574;BME280;2563;52.242;7.956;2022-09-03T00:23:19;100683.19;;;14.47;100.00
5574;BME280;2563;52.242;7.956;2022-09-03T00:26:13;100685.16;;;14.41;100.00
5574;BME280;2563;52.242;7.956;2022-09-03T00:29:10;100685.28;;;14.38;100.00
5574;BME280;2563;52.242;7.956;2022-09-03T00:31:41;100687.41;;;14.26;100.00
5574;BME280;2563;52.242;7.956;2022-09-03T00:36:44;100682.25;;;14.26;100.00
5574;BME280;2563;52.242;7.956;2022-09-03T00:39:21;100687.53;;;14.23;100.00
5574;BME280;2563;52.242;7.956;2022-09-03T00:55:57;100679.59;;;14.04;100.00
5574;BME280;2563;52.242;7.956;2022-09-03T00:58:32;100678.09;;;13.99;100.00
5574;BME280;2563;52.242;7.956;2022-09-03T01:01:09;100681.81;;;13.92;100.00
5574;BME280;2563;52.242;7.956;2022-09-03T01:06:57;100669.91;;;13.86;100.00
5574;BME280;2563;52.242;7.956;2022-09-03T01:09:54;100670.97;;;13.80;100.00
5574;BME280;2563;52.242;7.956;2022-09-03T01:12:54;100669.97;;;13.85;100.00
5574;BME280;2563;52.242;7.956;2022-09-03T01:30:48;100674.31;;;13.84;100.00
5574;BME280;2563;52.242;7.956;2022-09-03T01:36:24;100685.72;;;13.78;100.00
5574;BME280;2563;52.242;7.956;2022-09-03T01:39:06;100689.94;;;13.81;100.00
5574;BME280;2563;52.242;7.956;2022-09-03T01:42:09;100681.50;;;13.76;100.00
5574;BME280;2563;52.242;7.956;2022-09-03T01:50:43;100683.13;;;13.78;100.00
5574;BME280;2563;52.242;7.956;2022-09-03T02:02:26;100674.13;;;13.65;100.00
5574;BME280;2563;52.242;7.956;2022-09-03T02:05:14;100683.00;;;13.58;100.00
5574;BME280;2563;52.242;7.956;2022-09-03T02:07:55;100675.91;;;13.63;100.00
5574;BME280;2563;52.242;7.956;2022-09-03T02:10:25;100683.56;;;13.66;100.00
5574;BME280;2563;52.242;7.956;2022-09-03T02:12:58;100679.19;;;13.68;100.00
5574;BME280;2563;52.242;7.956;2022-09-03T02:15:25;100676.78;;;13.62;100.00
5574;BME280;2563;52.242;7.956;2022-09-03T02:17:54;100677.81;;;13.58;100.00
5574;BME280;2563;52.242;7.956;2022-09-03T02:20:24;100681.28;;;13.57;100.00
5574;BME280;2563;52.242;7.956;2022-09-03T02:22:54;100668.50;;;13.52;100.00
5574;BME280;2563;52.242;7.956;2022-09-03T02:25:22;100679.16;;;13.43;100.00
5574;BME280;2563;52.242;7.956;2022-09-03T02:27:49;100674.88;;;13.44;100.00
5574;BME280;2563;52.242;7.956;2022-09-03T02:30:15;100679.09;;;13.46;100.00
5574;BME280;2563;52.242;7.956;2022-09-03T02:32:42;100680.75;;;13.47;100.00
5574;BME280;2563;52.242;7.956;2022-09-03T02:35:07;100679.94;;;13.47;100.00
5574;BME280;2563;52.242;7.956;2022-09-03T02:37:33;100679.34;;;13.38;100.00
5574;BME280;2563;52.242;7.956;2022-09-03T02:39:59;100677.63;;;13.37;100.00
5574;BME280;2563;52.242;7.956;2022-09-03T02:42:24;100685.22;;;13.44;100.00
5574;BME280;2563;52.242;7.956;2022-09-03T02:44:54;100680.22;;;13.37;100.00
5574;BME280;2563;52.242;7.956;2022-09-03T02:47:22;100682.00;;;13.35;100.00
5574;BME280;2563;52.242;7.956;2022-09-03T02:49:53;100681.06;;;13.38;100.00
5574;BME280;2563;52.242;7.956;2022-09-03T02:52:18;100682.25;;;13.29;100.00
5574;BME280;2563;52.242;7.956;2022-09-03T02:54:43;100684.16;;;13.23;100.00
5574;BME280;2563;52.242;7.956;2022-09-03T02:57:12;100677.44;;;13.17;100.00
5574;BME280;2563;52.242;7.956;2022-09-03T02:59:38;100677.53;;;13.14;100.00
5574;BME280;2563;52.242;7.956;2022-09-03T03:02:04;100672.66;;;13.05;100.00
5574;BME280;2563;52.242;7.956;2022-09-03T03:04:30;100677.94;;;13.02;100.00
5574;BME280;2563;52.242;7.956;2022-09-03T03:06:56;100674.50;;;13.01;100.00
5574;BME280;2563;52.242;7.956;2022-09-03T03:09:21;100680.72;;;12.95;100.00
5574;BME280;2563;52.242;7.956;2022-09-03T03:11:47;100677.34;;;12.93;100.00
5574;BME280;2563;52.242;7.956;2022-09-03T03:14:15;100672.22;;;12.92;100.00
5574;BME280;2563;52.242;7.956;2022-09-03T03:16:40;100667.88;;;12.92;100.00
5574;BME280;2563;52.242;7.956;2022-09-03T03:19:06;100665.50;;;12.86;100.00
5574;BME280;2563;52.242;7.956;2022-09-03T03:21:31;100669.91;;;12.83;100.00
5574;BME280;2563;52.242;7.956;2022-09-03T03:23:56;100664.72;;;12.84;100.00
5574;BME280;2563;52.242;7.956;2022-09-03T03:26:22;100661.44;;;12.79;100.00
5574;BME280;2563;52.242;7.956;2022-09-03T03:28:49;100663.31;;;12.74;100.00
5574;BME280;2563;52.242;7.956;2022-09-03T03:31:19;100667.81;;;12.67;100.00
5574;BME280;2563;52.242;7.956;2022-09-03T03:33:52;100664.41;;;12.67;100.00
5574;BME280;2563;52.242;7.956;2022-09-03T03:36:18;100662.00;;;12.61;100.00
5574;BME280;2563;52.242;7.956;2022-09-03T03:38:44;100663.78;;;12.59;100.00
5574;BME280;2563;52.242;7.956;2022-09-03T03:41:22;100662.09;;;12.58;100.00
5574;BME280;2563;52.242;7.956;2022-09-03T03:43:52;100658.88;;;12.49;100.00
5574;BME280;2563;52.242;7.956;2022-09-03T03:46:19;100665.84;;;12.47;100.00
5574;BME280;2563;52.242;7.956;2022-09-03T03:48:50;100661.72;;;12.42;100.00
5574;BME280;2563;52.242;7.956;2022-09-03T03:51:16;100669.50;;;12.40;100.00
5574;BME280;2563;52.242;7.956;2022-09-03T03:53:42;100666.13;;;12.38;100.00
5574;BME280;2563;52.242;7.956;2022-09-03T03:56:10;100666.91;;;12.40;100.00
5574;BME280;2563;52.242;7.956;2022-09-03T03:58:37;100666.00;;;12.43;100.00
5574;BME280;2563;52.242;7.956;2022-09-03T04:01:18;100659.41;;;12.32;100.00
5574;BME280;2563;52.242;7.956;2022-09-03T04:03:44;100662.91;;;12.30;100.00
5574;BME280;2563;52.242;7.956;2022-09-03T04:06:11;100668.19;;;12.27;100.00
5574;BME280;2563;52.242;7.956;2022-09-03T04:08:39;100665.75;;;12.21;100.00
5574;BME280;2563;52.242;7.956;2022-09-03T04:11:07;100657.09;;;12.23;100.00
5574;BME280;2563;52.242;7.956;2022-09-03T04:13:38;100659.72;;;12.22;100.00
5574;BME280;2563;52.242;7.956;2022-09-03T04:16:10;100661.50;;;12.20;100.00
5574;BME280;2563;52.242;7.956;2022-09-03T04:18:37;100660.59;;;12.21;100.00
5574;BME280;2563;52.242;7.956;2022-09-03T04:21:14;100666.06;;;12.11;100.00
5574;BME280;2563;52.242;7.956;2022-09-03T04:23:41;100661.75;;;12.12;100.00
5574;BME280;2563;52.242;7.956;2022-09-03T04:26:09;100663.63;;;12.05;100.00
5574;BME280;2563;52.242;7.956;2022-09-03T04:28:35;100656.88;;;12.01;100.00
5574;BME280;2563;52.242;7.956;2022-09-03T04:31:05;100649.97;;;12.02;100.00
5574;BME280;2563;52.242;7.956;2022-09-03T04:33:31;100653.56;;;11.96;100.00
5574;BME280;2563;52.242;7.956;2022-09-03T04:38:36;100654.50;;;11.94;100.00
5574;BME280;2563;52.242;7.956;2022-09-03T04:41:02;100652.84;;;11.93;100.00
5574;BME280;2563;52.242;7.956;2022-09-03T04:43:28;100661.50;;;11.90;100.00
5574;BME280;2563;52.242;7.956;2022-09-03T04:46:02;100658.94;;;11.90;100.00
5574;BME280;2563;52.242;7.956;2022-09-03T04:48:29;100655.53;;;11.88;100.00
5574;BME280;2563;52.242;7.956;2022-09-03T04:51:04;100668.44;;;11.86;100.00
5574;BME280;2563;52.242;7.956;2022-09-03T04:53:34;100658.94;;;11.90;100.00
5574;BME280;2563;52.242;7.956;2022-09-03T04:56:00;100655.28;;;11.97;100.00
5574;BME280;2563;52.242;7.956;2022-09-03T04:58:25;100663.09;;;11.94;100.00
5574;BME280;2563;52.242;7.956;2022-09-03T05:00:51;100663.94;;;11.95;100.00
5574;BME280;2563;52.242;7.956;2022-09-03T05:03:17;100664.00;;;11.93;100.00
5574;BME280;2563;52.242;7.956;2022-09-03T05:05:50;100663.91;;;11.96;100.00
5574;BME280;2563;52.242;7.956;2022-09-03T05:08:16;100671.53;;;11.99;100.00
5574;BME280;2563;52.242;7.956;2022-09-03T05:10:41;100670.66;;;12.00;100.00
5574;BME280;2563;52.242;7.956;2022-09-03T05:13:07;100661.16;;;12.02;100.00
5574;BME280;2563;52.242;7.956;2022-09-03T05:15:32;100654.13;;;12.07;100.00
5574;BME280;2563;52.242;7.956;2022-09-03T05:17:58;100664.34;;;12.10;100.00
5574;BME280;2563;52.242;7.956;2022-09-03T05:20:24;100660.53;;;12.24;100.00
5574;BME280;2563;52.242;7.956;2022-09-03T05:22:51;100660.47;;;12.25;100.00
5574;BME280;2563;52.242;7.956;2022-09-03T05:25:16;100652.59;;;12.30;100.00
5574;BME280;2563;52.242;7.956;2022-09-03T05:27:42;100649.88;;;12.34;100.00
5574;BME280;2563;52.242;7.956;2022-09-03T05:30:07;100650.69;;;12.37;100.00
5574;BME280;2563;52.242;7.956;2022-09-03T05:32:33;100653.84;;;12.46;100.00
5574;BME280;2563;52.242;7.956;2022-09-03T05:34:58;100651.25;;;12.46;100.00
5574;BME280;2563;52.242;7.956;2022-09-03T05:37:24;100647.75;;;12.47;100.00
5574;BME280;2563;52.242;7.956;2022-09-03T05:39:49;100649.25;;;12.54;100.00
5574;BME280;2563;52.242;7.956;2022-09-03T05:42:15;100657.69;;;12.61;100.00
5574;BME280;2563;52.242;7.956;2022-09-03T05:44:40;100657.44;;;12.69;100.00
5574;BME280;2563;52.242;7.956;2022-09-03T05:47:05;100650.41;;;12.74;100.00
5574;BME280;2563;52.242;7.956;2022-09-03T05:49:31;100649.41;;;12.78;100.00
5574;BME280;2563;52.242;7.956;2022-09-03T05:51:56;100650.88;;;12.85;100.00
5574;BME280;2563;52.242;7.956;2022-09-03T05:54:22;100653.28;;;12.91;100.00
5574;BME280;2563;52.242;7.956;2022-09-03T05:56:47;100641.88;;;12.98;100.00
5574;BME280;2563;52.242;7.956;2022-09-03T05:59:14;100653.84;;;13.01;100.00
5574;BME280;2563;52.242;7.956;2022-09-03T06:01:43;100643.34;;;13.06;100.00
5574;BME280;2563;52.242;7.956;2022-09-03T06:04:12;100651.41;;;13.22;100.00
5574;BME280;2563;52.242;7.956;2022-09-03T06:06:40;100648.63;;;13.29;100.00
5574;BME280;2563;52.242;7.956;2022-09-03T06:09:17;100651.78;;;13.37;100.00
5574;BME280;2563;52.242;7.956;2022-09-03T06:11:45;100647.22;;;13.46;100.00
5574;BME280;2563;52.242;7.956;2022-09-03T06:14:12;100657.28;;;13.53;100.00
5574;BME280;2563;52.242;7.956;2022-09-03T06:16:40;100656.91;;;13.64;100.00
5574;BME280;2563;52.242;7.956;2022-09-03T06:19:07;100655.63;;;13.76;100.00
5574;BME280;2563;52.242;7.956;2022-09-03T06:21:34;100655.19;;;13.88;100.00
5574;BME280;2563;52.242;7.956;2022-09-03T06:24:01;100661.59;;;14.01;100.00
5574;BME280;2563;52.242;7.956;2022-09-03T06:26:27;100660.31;;;14.13;100.00
5574;BME280;2563;52.242;7.956;2022-09-03T06:28:53;100659.91;;;14.24;100.00
5574;BME280;2563;52.242;7.956;2022-09-03T06:31:19;100661.19;;;14.36;100.00
5574;BME280;2563;52.242;7.956;2022-09-03T06:33:45;100655.53;;;14.48;100.00
5574;BME280;2563;52.242;7.956;2022-09-03T06:36:16;100659.38;;;14.61;100.00
5574;BME280;2563;52.242;7.956;2022-09-03T06:38:43;100656.59;;;14.66;100.00
5574;BME280;2563;52.242;7.956;2022-09-03T06:41:14;100653.66;;;14.75;100.00
5574;BME280;2563;52.242;7.956;2022-09-03T06:43:48;100657.50;;;14.87;100.00
5574;BME280;2563;52.242;7.956;2022-09-03T06:46:15;100652.66;;;15.00;100.00
5574;BME280;2563;52.242;7.956;2022-09-03T06:48:41;100659.22;;;15.08;100.00
5574;BME280;2563;52.242;7.956;2022-09-03T06:51:09;100655.38;;;15.17;100.00
5574;BME280;2563;52.242;7.956;2022-09-03T06:53:37;100661.03;;;15.27;100.00
5574;BME280;2563;52.242;7.956;2022-09-03T06:56:04;100659.81;;;15.36;100.00
5574;BME280;2563;52.242;7.956;2022-09-03T06:58:33;100652.41;;;15.47;100.00
5574;BME280;2563;52.242;7.956;2022-09-03T07:01:06;100660.56;;;15.58;100.00
5574;BME280;2563;52.242;7.956;2022-09-03T07:03:32;100656.78;;;15.65;100.00
5574;BME280;2563;52.242;7.956;2022-09-03T07:06:09;100650.09;;;15.80;100.00
5574;BME280;2563;52.242;7.956;2022-09-03T07:08:35;100661.28;;;15.82;100.00
5574;BME280;2563;52.242;7.956;2022-09-03T07:11:02;100661.06;;;15.87;100.00
5574;BME280;2563;52.242;7.956;2022-09-03T07:13:30;100654.63;;;15.95;100.00
5574;BME280;2563;52.242;7.956;2022-09-03T07:16:04;100662.69;;;16.08;100.00
5574;BME280;2563;52.242;7.956;2022-09-03T07:18:31;100668.06;;;16.24;100.00
5574;BME280;2563;52.242;7.956;2022-09-03T07:20:58;100660.09;;;16.27;100.00
5574;BME280;2563;52.242;7.956;2022-09-03T07:23:24;100660.81;;;16.31;100.00
5574;BME280;2563;52.242;7.956;2022-09-03T07:25:55;100659.09;;;16.49;100.00
5574;BME280;2563;52.242;7.956;2022-09-03T07:28:20;100656.34;;;16.52;100.00
5574;BME280;2563;52.242;7.956;2022-09-03T07:30:46;100655.25;;;16.57;100.00
5574;BME280;2563;52.242;7.956;2022-09-03T07:33:11;100652.00;;;16.71;100.00
5574;BME280;2563;52.242;7.956;2022-09-03T07:35:36;100649.25;;;16.74;100.00
5574;BME280;2563;52.242;7.956;2022-09-03T07:38:02;100656.53;;;16.85;100.00
5574;BME280;2563;52.242;7.956;2022-09-03T07:40:27;100648.44;;;16.91;100.00
5574;BME280;2563;52.242;7.956;2022-09-03T07:42:57;100649.13;;;16.95;100.00
5574;BME280;2563;52.242;7.956;2022-09-03T07:45:29;100656.47;;;17.04;100.00
5574;BME280;2563;52.242;7.956;2022-09-03T07:47:54;100652.59;;;17.13;100.00
5574;BME280;2563;52.242;7.956;2022-09-03T07:50:19;100644.09;;;17.09;100.00
5574;BME280;2563;52.242;7.956;2022-09-03T07:52:45;100653.50;;;17.12;100.00
5574;BME280;2563;52.242;7.956;2022-09-03T07:55:11;100654.88;;;17.19;100.00
5574;BME280;2563;52.242;7.956;2022-09-03T07:57:37;100647.06;;;17.36;100.00
5574;BME280;2563;52.242;7.956;2022-09-03T08:00:03;100650.13;;;17.44;100.00
5574;BME280;2563;52.242;7.956;2022-09-03T08:02:30;100652.31;;;17.52;100.00
5574;BME280;2563;52.242;7.956;2022-09-03T08:04:56;100648.00;;;17.69;100.00
5574;BME280;2563;52.242;7.956;2022-09-03T08:07:21;100635.50;;;17.75;100.00
5574;BME280;2563;52.242;7.956;2022-09-03T08:09:46;100643.38;;;17.91;100.00
5574;BME280;2563;52.242;7.956;2022-09-03T08:12:12;100642.03;;;18.00;100.00
5574;BME280;2563;52.242;7.956;2022-09-03T08:14:37;100645.75;;;18.12;100.00
5574;BME280;2563;52.242;7.956;2022-09-03T08:17:02;100640.44;;;18.29;100.00
5574;BME280;2563;52.242;7.956;2022-09-03T08:19:28;100643.31;;;18.40;100.00
5574;BME280;2563;52.242;7.956;2022-09-03T08:21:54;100645.22;;;18.53;100.00
5574;BME280;2563;52.242;7.956;2022-09-03T08:24:19;100637.13;;;18.73;100.00
5574;BME280;2563;52.242;7.956;2022-09-03T08:26:49;100648.00;;;18.81;100.00
5574;BME280;2563;52.242;7.956;2022-09-03T08:29:15;100638.59;;;19.09;100.00
5574;BME280;2563;52.242;7.956;2022-09-03T08:31:40;100626.88;;;19.30;100.00
5574;BME280;2563;52.242;7.956;2022-09-03T08:34:07;100633.22;;;19.41;100.00
5574;BME280;2563;52.242;7.956;2022-09-03T08:36:37;100627.06;;;19.56;100.00
5574;BME280;2563;52.242;7.956;2022-09-03T08:39:05;100635.50;;;19.90;100.00
5574;BME280;2563;52.242;7.956;2022-09-03T08:54:54;100610.69;;;22.79;100.00
5574;BME280;2563;52.242;7.956;2022-09-03T08:57:24;100607.25;;;23.13;100.00
5574;BME280;2563;52.242;7.956;2022-09-03T08:59:53;100607.72;;;23.19;100.00
5574;BME280;2563;52.242;7.956;2022-09-03T09:10:55;100612.63;;;24.57;100.00
5574;BME280;2563;52.242;7.956;2022-09-03T09:13:44;100602.63;;;24.93;100.00
5574;BME280;2563;52.242;7.956;2022-09-03T09:16:26;100599.03;;;24.94;96.31
5574;BME280;2563;52.242;7.956;2022-09-03T09:19:08;100590.22;;;24.30;94.50
5574;BME280;2563;52.242;7.956;2022-09-03T09:21:48;100599.69;;;24.54;93.78
5574;BME280;2563;52.242;7.956;2022-09-03T09:24:25;100591.91;;;25.05;90.67
5574;BME280;2563;52.242;7.956;2022-09-03T09:26:59;100586.19;;;25.21;88.90
5574;BME280;2563;52.242;7.956;2022-09-03T09:29:31;100586.44;;;25.18;88.63
5574;BME280;2563;52.242;7.956;2022-09-03T09:31:57;100581.50;;;25.25;88.42
5574;BME280;2563;52.242;7.956;2022-09-03T09:34:23;100586.50;;;25.68;83.67
5574;BME280;2563;52.242;7.956;2022-09-03T09:36:53;100581.75;;;25.93;81.94
5574;BME280;2563;52.242;7.956;2022-09-03T09:39:20;100584.41;;;25.93;80.65
5574;BME280;2563;52.242;7.956;2022-09-03T09:42:00;100574.31;;;26.66;79.39
5574;BME280;2563;52.242;7.956;2022-09-03T09:44:32;100574.41;;;26.26;78.10
5574;BME280;2563;52.242;7.956;2022-09-03T09:47:33;100569.72;;;26.49;75.89
5574;BME280;2563;52.242;7.956;2022-09-03T09:50:02;100567.06;;;26.39;75.34
5574;BME280;2563;52.242;7.956;2022-09-03T09:52:29;100564.84;;;26.73;79.57
5574;BME280;2563;52.242;7.956;2022-09-03T09:55:10;100552.06;;;26.59;73.13
5574;BME280;2563;52.242;7.956;2022-09-03T09:57:38;100553.69;;;26.89;73.63
5574;BME280;2563;52.242;7.956;2022-09-03T10:00:11;100551.75;;;26.91;70.42
5574;BME280;2563;52.242;7.956;2022-09-03T10:02:47;100555.75;;;26.95;71.69
5574;BME280;2563;52.242;7.956;2022-09-03T10:05:25;100550.50;;;27.33;68.50
5574;BME280;2563;52.242;7.956;2022-09-03T10:07:58;100553.81;;;27.45;68.69
5574;BME280;2563;52.242;7.956;2022-09-03T10:10:25;100550.81;;;27.10;66.50
5574;BME280;2563;52.242;7.956;2022-09-03T10:13:01;100547.22;;;27.76;67.46
5574;BME280;2563;52.242;7.956;2022-09-03T10:18:25;100546.72;;;27.91;66.32
5574;BME280;2563;52.242;7.956;2022-09-03T10:21:14;100543.81;;;27.39;64.48
5574;BME280;2563;52.242;7.956;2022-09-03T10:23:56;100538.59;;;27.74;64.62
5574;BME280;2563;52.242;7.956;2022-09-03T10:26:24;100533.28;;;27.29;63.50
5574;BME280;2563;52.242;7.956;2022-09-03T10:28:57;100530.16;;;27.89;63.43
5574;BME280;2563;52.242;7.956;2022-09-03T10:31:49;100538.91;;;27.71;62.75
5574;BME280;2563;52.242;7.956;2022-09-03T10:34:37;100537.44;;;28.23;63.47
5574;BME280;2563;52.242;7.956;2022-09-03T10:50:26;100534.47;;;28.43;61.23
5574;BME280;2563;52.242;7.956;2022-09-03T10:55:59;100522.56;;;28.66;59.62
5574;BME280;2563;52.242;7.956;2022-09-03T11:01:14;100524.03;;;28.60;59.52
5574;BME280;2563;52.242;7.956;2022-09-03T11:03:47;100528.72;;;28.66;59.75
5574;BME280;2563;52.242;7.956;2022-09-03T11:06:21;100527.00;;;28.83;59.74
5574;BME280;2563;52.242;7.956;2022-09-03T11:08:57;100523.69;;;29.07;59.77
5574;BME280;2563;52.242;7.956;2022-09-03T11:11:31;100520.63;;;29.79;58.63
5574;BME280;2563;52.242;7.956;2022-09-03T11:14:03;100511.69;;;29.29;58.46
5574;BME280;2563;52.242;7.956;2022-09-03T11:16:35;100525.56;;;28.97;58.83
5574;BME280;2563;52.242;7.956;2022-09-03T11:19:05;100515.16;;;29.03;59.04
5574;BME280;2563;52.242;7.956;2022-09-03T11:21:32;100513.09;;;28.89;58.08
5574;BME280;2563;52.242;7.956;2022-09-03T11:24:13;100497.59;;;30.04;58.67
5574;BME280;2563;52.242;7.956;2022-09-03T11:26:46;100494.59;;;30.48;58.49
5574;BME280;2563;52.242;7.956;2022-09-03T11:32:21;100504.88;;;29.69;55.83
5574;BME280;2563;52.242;7.956;2022-09-03T11:34:50;100497.50;;;29.63;55.76
5574;BME280;2563;52.242;7.956;2022-09-03T11:37:24;100495.75;;;29.80;58.16
5574;BME280;2563;52.242;7.956;2022-09-03T11:42:27;100494.78;;;29.89;53.87
5574;BME280;2563;52.242;7.956;2022-09-03T11:44:59;100484.16;;;30.22;56.70
5574;BME280;2563;52.242;7.956;2022-09-03T11:50:31;100494.25;;;29.85;54.43
5574;BME280;2563;52.242;7.956;2022-09-03T11:58:36;100497.19;;;28.81;58.75
5574;BME280;2563;52.242;7.956;2022-09-03T12:01:07;100493.59;;;29.67;58.02
5574;BME280;2563;52.242;7.956;2022-09-03T12:03:46;100480.66;;;29.72;56.75
5574;BME280;2563;52.242;7.956;2022-09-03T12:19:59;100473.19;;;30.25;53.94
5574;BME280;2563;52.242;7.956;2022-09-03T12:22:28;100479.34;;;30.58;54.74
5574;BME280;2563;52.242;7.956;2022-09-03T12:24:54;100469.38;;;30.19;52.81
5574;BME280;2563;52.242;7.956;2022-09-03T12:27:22;100473.88;;;28.93;54.24
5574;BME280;2563;52.242;7.956;2022-09-03T12:30:03;100479.13;;;27.78;57.42
5574;BME280;2563;52.242;7.956;2022-09-03T12:32:34;100490.16;;;27.28;58.79
5574;BME280;2563;52.242;7.956;2022-09-03T12:35:18;100482.47;;;26.98;61.71
5574;BME280;2563;52.242;7.956;2022-09-03T12:37:45;100477.25;;;27.25;61.70
5574;BME280;2563;52.242;7.956;2022-09-03T12:40:23;100485.25;;;27.33;63.71
5574;BME280;2563;52.242;7.956;2022-09-03T12:42:51;100476.31;;;27.62;65.25
5574;BME280;2563;52.242;7.956;2022-09-03T12:45:22;100478.28;;;28.32;64.09
5574;BME280;2563;52.242;7.956;2022-09-03T12:47:48;100472.34;;;27.94;61.83
5574;BME280;2563;52.242;7.956;2022-09-03T12:50:21;100470.81;;;27.73;61.89
5574;BME280;2563;52.242;7.956;2022-09-03T12:52:52;100476.38;;;27.34;61.03
5574;BME280;2563;52.242;7.956;2022-09-03T12:58:31;100476.88;;;27.01;63.72
5574;BME280;2563;52.242;7.956;2022-09-03T13:06:07;100467.81;;;27.13;63.71
5574;BME280;2563;52.242;7.956;2022-09-03T13:08:47;100473.41;;;26.72;63.19
5574;BME280;2563;52.242;7.956;2022-09-03T13:11:19;100470.81;;;27.28;62.88
5574;BME280;2563;52.242;7.956;2022-09-03T13:14:07;100462.28;;;28.41;63.59
5574;BME280;2563;52.242;7.956;2022-09-03T13:30:13;100463.50;;;27.85;58.77
5574;BME280;2563;52.242;7.956;2022-09-03T13:40:18;100458.13;;;27.31;62.11
5574;BME280;2563;52.242;7.956;2022-09-03T13:42:55;100457.81;;;28.16;62.42
5574;BME280;2563;52.242;7.956;2022-09-03T13:45:34;100451.97;;;28.30;60.68
5574;BME280;2563;52.242;7.956;2022-09-03T13:48:09;100452.84;;;27.31;60.84
5574;BME280;2563;52.242;7.956;2022-09-03T13:51:05;100454.50;;;27.05;61.80
5574;BME280;2563;52.242;7.956;2022-09-03T13:53:50;100450.78;;;26.98;64.74
5574;BME280;2563;52.242;7.956;2022-09-03T13:58:59;100445.75;;;27.04;63.37
5574;BME280;2563;52.242;7.956;2022-09-03T14:01:54;100451.44;;;28.27;64.48
5574;BME280;2563;52.242;7.956;2022-09-03T14:04:28;100444.09;;;29.33;66.23
5574;BME280;2563;52.242;7.956;2022-09-03T14:07:05;100452.84;;;29.34;59.97
5574;BME280;2563;52.242;7.956;2022-09-03T14:09:40;100445.81;;;29.08;58.61
5574;BME280;2563;52.242;7.956;2022-09-03T14:12:16;100450.84;;;28.33;58.39
5574;BME280;2563;52.242;7.956;2022-09-03T14:14:57;100449.88;;;27.62;60.45
5574;BME280;2563;52.242;7.956;2022-09-03T14:17:45;100441.13;;;27.34;61.34
5574;BME280;2563;52.242;7.956;2022-09-03T14:20:31;100449.06;;;27.06;64.67
5574;BME280;2563;52.242;7.956;2022-09-03T14:23:33;100456.97;;;26.79;67.06
5574;BME280;2563;52.242;7.956;2022-09-03T14:26:04;100450.34;;;26.45;66.88
5574;BME280;2563;52.242;7.956;2022-09-03T14:28:34;100454.81;;;26.35;68.21
5574;BME280;2563;52.242;7.956;2022-09-03T14:31:10;100458.44;;;26.34;69.66
5574;BME280;2563;52.242;7.956;2022-09-03T14:41:58;100449.78;;;26.51;72.20
5574;BME280;2563;52.242;7.956;2022-09-03T15:12:43;100454.53;;;26.58;70.56
5574;BME280;2563;52.242;7.956;2022-09-03T15:15:31;100453.69;;;26.47;70.51
5574;BME280;2563;52.242;7.956;2022-09-03T15:20:56;100463.75;;;25.95;71.52
5574;BME280;2563;52.242;7.956;2022-09-03T15:34:47;100478.34;;;25.39;78.24
5574;BME280;2563;52.242;7.956;2022-09-03T15:37:29;100470.31;;;25.41;77.67
5574;BME280;2563;52.242;7.956;2022-09-03T15:40:02;100470.91;;;25.54;76.34
5574;BME280;2563;52.242;7.956;2022-09-03T15:42:29;100477.06;;;25.84;75.18
5574;BME280;2563;52.242;7.956;2022-09-03T15:45:04;100467.78;;;25.99;74.86
5574;BME280;2563;52.242;7.956;2022-09-03T15:47:54;100467.31;;;26.33;75.92
5574;BME280;2563;52.242;7.956;2022-09-03T15:50:25;100468.75;;;26.27;75.36
5574;BME280;2563;52.242;7.956;2022-09-03T15:55:36;100474.94;;;25.78;74.42
5574;BME280;2563;52.242;7.956;2022-09-03T16:03:12;100468.84;;;25.58;73.94
5574;BME280;2563;52.242;7.956;2022-09-03T16:06:04;100472.09;;;25.40;74.63
5574;BME280;2563;52.242;7.956;2022-09-03T16:08:43;100480.44;;;25.36;75.87
5574;BME280;2563;52.242;7.956;2022-09-03T16:14:02;100478.59;;;24.96;76.74
5574;BME280;2563;52.242;7.956;2022-09-03T16:19:28;100481.81;;;24.48;79.17
5574;BME280;2563;52.242;7.956;2022-09-03T16:22:06;100486.28;;;24.57;81.52
5574;BME280;2563;52.242;7.956;2022-09-03T16:27:41;100480.22;;;24.24;81.98
5574;BME280;2563;52.242;7.956;2022-09-03T16:30:13;100488.16;;;24.13;83.36
5574;BME280;2563;52.242;7.956;2022-09-03T16:33:01;100489.50;;;24.07;85.18
5574;BME280;2563;52.242;7.956;2022-09-03T16:39:17;100487.25;;;24.03;86.60
5574;BME280;2563;52.242;7.956;2022-09-03T16:42:13;100487.34;;;23.80;87.24
5574;BME280;2563;52.242;7.956;2022-09-03T16:50:23;100497.88;;;23.46;90.85
5574;BME280;2563;52.242;7.956;2022-09-03T16:53:09;100494.06;;;23.39;91.85
5574;BME280;2563;52.242;7.956;2022-09-03T16:56:39;100499.44;;;23.26;93.43
5574;BME280;2563;52.242;7.956;2022-09-03T17:01:55;100514.13;;;23.06;96.30
5574;BME280;2563;52.242;7.956;2022-09-03T17:18:01;100523.84;;;22.70;100.00
5574;BME280;2563;52.242;7.956;2022-09-03T17:23:57;100528.13;;;22.60;100.00
5574;BME280;2563;52.242;7.956;2022-09-03T17:27:03;100519.81;;;22.42;100.00
5574;BME280;2563;52.242;7.956;2022-09-03T17:43:27;100537.88;;;22.23;100.00
5574;BME280;2563;52.242;7.956;2022-09-03T17:49:00;100547.19;;;21.90;100.00
5574;BME280;2563;52.242;7.956;2022-09-03T17:51:43;100549.03;;;21.77;100.00
5574;BME280;2563;52.242;7.956;2022-09-03T17:54:39;100553.03;;;21.70;100.00
5574;BME280;2563;52.242;7.956;2022-09-03T18:00:51;100562.16;;;21.64;100.00
5574;BME280;2563;52.242;7.956;2022-09-03T18:05:56;100565.84;;;21.49;100.00
5574;BME280;2563;52.242;7.956;2022-09-03T18:11:17;100562.06;;;21.27;100.00
5574;BME280;2563;52.242;7.956;2022-09-03T18:14:08;100566.34;;;21.28;100.00
5574;BME280;2563;52.242;7.956;2022-09-03T18:17:02;100568.66;;;21.20;100.00
5574;BME280;2563;52.242;7.956;2022-09-03T18:19:43;100576.31;;;21.10;100.00